• Join FlightAware (Why Join?)
  • Login
  • US Flag 
11:33AM EDT


 

Airport Tracker/Info


-or-


 

Live Flight TrackerFlight Track Log ✈ SWA1635 ✈ 29-Apr-2013 ✈ KTUS - KLAX

Flight Track Log - Related Links

Times and Time Zones

All times are in EDT time to prevent confusion due to time zone crossing. See the SWA1635 flight status page for this flight to view local times or setup timezone preferences in your user account.

Time Position Orientation Groundspeed Altitude Reporting Facility
EDT Latitude Longitude Course Direction KTS MPH feet Rate Location/Type
12:38PM 32.1008 -110.9228 152° Southeast 183 211 3,200  Level Albuquerque Center
12:38PM 32.0594 -110.8964 152° Southeast 215 247 4,600 1,980 Climbing Albuquerque Center
12:39PM 32.0056 -110.9286 207° Southwest 250 288 6,700 1,920 Climbing Albuquerque Center
12:40PM 32.0094 -110.9797 275° West 303 349 7,900 1,800 Climbing Albuquerque Center
12:41PM 32.0542 -111.0556 305° West 283 326 10,000 1,980 Climbing Albuquerque Center
12:42PM 32.1181 -111.1678 304° West 333 383 12,000 2,040 Climbing Albuquerque Center
12:43PM 32.1303 -111.1944 298° West 358 412 12,700 2,220 Climbing Albuquerque Center
12:43PM 32.1747 -111.2672 306° West 361 415 14,300 2,100 Climbing Albuquerque Center
12:44PM 32.2339 -111.3708 304° West 375 432 16,500 1,980 Climbing Albuquerque Center
12:45PM 32.2942 -111.4781 304° West 387 445 18,500 2,040 Climbing Albuquerque Center
12:46PM 32.3647 -111.6047 303° West 395 455 20,800 1,740 Climbing Albuquerque Center
12:47PM 32.4189 -111.6992 304° West 404 465 22,100 1,500 Climbing Albuquerque Center
12:48PM 32.4967 -111.8375 304° West 418 481 24,000 900 Climbing Albuquerque Center
12:49PM 32.5628 -111.9575 303° West 428 493 24,000  Level Albuquerque Center
12:51PM 32.6297 -112.0781 303° West 434 499 24,000  Level Albuquerque Center
12:52PM 32.6969 -112.2008 303° West 440 506 24,000  Level Albuquerque Center
12:53PM 32.7733 -112.3392 303° West 444 511 24,000  Level Albuquerque Center
12:54PM 32.8397 -112.4608 303° West 443 510 24,000  Level Albuquerque Center
12:55PM 32.9067 -112.5833 303° West 444 511 24,000  Level Albuquerque Center
12:56PM 32.9769 -112.7025 305° West 447 514 24,000  Level Albuquerque Center
12:57PM 33.0611 -112.8100 313° West 448 516 24,000  Level Albuquerque Center
12:58PM 33.1589 -112.9414 312° West 444 511 24,000  Level Albuquerque Center
12:59PM 33.2414 -113.0500 312° West 444 511 24,000  Level Albuquerque Center
01:00PM 33.3231 -113.1597 312° West 444 511 24,000  Level Albuquerque Center
01:01PM 33.4053 -113.2692 312° West 443 510 24,000  Level Albuquerque Center
01:02PM 33.4878 -113.3800 312° West 446 513 24,000  Level Albuquerque Center
01:03PM 33.5861 -113.5122 312° West 444 511 24,000  Level Albuquerque Center
01:04PM 33.6644 -113.6172 312° West 444 511 24,000  Level Albuquerque Center
01:05PM 33.7447 -113.7286 311° West 442 509 24,000  Level Albuquerque Center
01:06PM 33.8178 -113.8483 306° West 443 510 24,000  Level Albuquerque Center
01:07PM 33.8508 -113.9933 285° West 449 517 24,000  Level Albuquerque Center
01:08PM 33.8767 -114.1708 280° West 449 517 24,000  Level Albuquerque Center
01:09PM 33.9008 -114.3242 281° West 451 519 24,000  Level Albuquerque Center
01:10PM 33.9222 -114.4714 280° West 449 517 24,000  Level Albuquerque Center
01:11PM 33.9508 -114.6542 281° West 450 518 24,000  Level Los Angeles Center
01:12PM 33.9728 -114.8008 280° West 449 517 24,000  Level Los Angeles Center
01:13PM 33.9903 -114.9197 280° West 451 519 24,000  Level Los Angeles Center
01:15PM 34.0169 -115.0961 280° West 449 517 24,000  Level Los Angeles Center
01:16PM 34.0433 -115.2739 280° West 451 519 24,000  Level Los Angeles Center
01:17PM 34.0592 -115.3925 279° West 452 520 24,000  Level Los Angeles Center
01:18PM 34.0842 -115.5697 280° West 450 518 24,000  Level Los Angeles Center
01:19PM 34.1056 -115.7172 280° West 450 518 24,000  Level Los Angeles Center
01:20PM 34.1028 -115.8356 268° West 453 521 24,000  Level Los Angeles Center
01:21PM 34.0717 -116.0419 260° West 448 516 24,000  Level Los Angeles Center
01:22PM 34.0500 -116.1903 260° West 451 519 24,000  Level Los Angeles Center
01:23PM 34.0281 -116.3375 260° West 450 518 24,000 -60 Level Los Angeles Center
01:24PM 34.0017 -116.5150 260° West 450 518 23,900 -180 Descending Los Angeles Center
01:25PM 33.9925 -116.6506 265° West 407 468 23,600 -960 Descending Los Angeles Center
01:26PM 33.9786 -116.8183 264° West 362 417 21,800 -1,800 Descending Los Angeles Center
01:27PM 33.9692 -116.9364 265° West 356 410 19,900 -1,980 Descending Los Angeles Center
01:29PM 33.9500 -117.0833 261° West 340 391 17,500 -1,440 Descending Southern California TRACON
01:30PM 33.9500 -117.1833 270° West 320 368 16,800 -1,740 Descending Southern California TRACON
01:31PM 33.9667 -117.3000 280° West 329 379 14,100 -1,740 Descending Southern California TRACON
01:32PM 34.0000 -117.4000 292° West 313 360 13,400 -900 Descending Southern California TRACON
01:33PM 34.0167 -117.5000 281° West 294 338 12,400 -1,020 Descending Southern California TRACON
01:34PM 34.0167 -117.6000 270° West 374 430 11,400 -960 Descending Southern California TRACON
01:35PM 34.0333 -117.6833 284° West 310 357 10,500 -660 Descending Southern California TRACON
01:36PM 34.0167 -117.7833 259° West 268 308 10,100 -840 Descending Southern California TRACON
01:37PM 34.0000 -117.8667 256° West 274 315 8,900 -1,740 Descending Southern California TRACON
01:38PM 34.0000 -117.9833 270° West 293 337 6,700 -1,260 Descending Southern California TRACON
01:39PM 33.9833 -118.0500 253° West 228 262 6,400 -1,200 Descending Southern California TRACON
01:40PM 33.9833 -118.1333 270° West 215 247 4,400 -1,680 Descending Southern California TRACON
01:40PM 33.9775 -118.1592 255° West 215 247 3,700 -900 Descending Los Angeles Center
01:41PM 33.9689 -118.2389 263° West 205 236 2,900 -960 Descending Los Angeles Center
01:42PM 33.9625 -118.3000 263° West 195 224 1,800 -900 Descending Los Angeles Center
01:43PM 33.9583 -118.3467 264° West 161 185 1,100 -660 Descending Los Angeles Center
01:45PM 33.9533 -118.4022 264° West 146 168 300 -660 Descending Los Angeles Center
01:47PM 33.9425 -118.4081 270° West  Level Estimated